Pagrindinis puslapis
METAR-TAF:

METAR-TAF

Oro uostai :

Grenchenas, Šveicarija

platuma: 47-10-53N, ilguma: 007-24-59E, Aukštis: 430 m

Dabartinis oras

Ataskaita buvo paskelbta 20 minutes, ne 23:50 UTC
Vėjas 1 kt nuo kintamojo kryptimis
Temperatūra 7°C
Drėgmė 81%
Slėgis 1016 hPa
Matomumas 10 km arba daugiau
Išsisklaidę debesys ne aukštis 6500 ft
Su prošvaistėmis ne aukštis 7500 ft

METAR: LSZG 282350Z AUTO VRB01KT 9999 SCT065 BKN075 07/04 Q1016

Laikas: 01:10 (00:10 UTC)

Prognozė

Ataskaita buvo paskelbta 9 valandos ir 45 minutes, ne 14:25 UTC
Prognozė galioja nuo 28 metu 15 UTC su 28 metu 24 UTC
Vėjas 4 kt iš Rytų/Šiaurės Rytų
Matomumas 10 km arba daugiau
Mažai debesys ne aukštis 5000 ft
Tikimybė 40%
nuo 28 metu 17 UTC su 28 metu 21 UTC
Vėjas 12 kt iš Šiaurės su gūsio iki 25 kt

TAF: LSZG 281425Z 2815/2824 06004KT 9999 FEW050 PROB40 2817/2821 35012G25KT

Orai ataskaitas ir orų prognozės (METAR, TAF).

turimą stotys yra geltonos ir raudonos taškus žemėlapyje.

Perkelti pele per norėdami pamatyti stoties vardą.

Tada spustelėkite, norėdami matyti oro stebėjimo ir prognozės.

Norėdami pakeisti žemėlapį: spustelėkite ant žalios mygtukų su juodo kryžiaus žemyn,; žalią mygtuką su brūkšneliu, jei norite nutolinti; arba žalių rodyklių gretimoms žemėlapius.


METAR-TAF: